sensor_id;sensor_type;location;lat;lon;timestamp;temperature;humidity
78028;DHT22;67235;45.638;11.714;2023-02-28T00:01:33;5.20;42.80
78028;DHT22;67235;45.638;11.714;2023-02-28T00:03:58;5.40;42.00
78028;DHT22;67235;45.638;11.714;2023-02-28T00:06:26;5.30;41.90
78028;DHT22;67235;45.638;11.714;2023-02-28T00:08:52;5.20;41.70
78028;DHT22;67235;45.638;11.714;2023-02-28T00:11:18;5.50;41.90
78028;DHT22;67235;45.638;11.714;2023-02-28T00:13:45;5.30;42.10
78028;DHT22;67235;45.638;11.714;2023-02-28T00:16:21;5.20;42.00
78028;DHT22;67235;45.638;11.714;2023-02-28T00:18:48;5.30;42.00
78028;DHT22;67235;45.638;11.714;2023-02-28T00:21:14;5.30;42.00
78028;DHT22;67235;45.638;11.714;2023-02-28T00:23:40;5.20;42.60
78028;DHT22;67235;45.638;11.714;2023-02-28T00:26:06;5.30;42.20
78028;DHT22;67235;45.638;11.714;2023-02-28T00:28:32;5.30;42.70
78028;DHT22;67235;45.638;11.714;2023-02-28T00:30:58;5.20;43.40
78028;DHT22;67235;45.638;11.714;2023-02-28T00:33:25;5.30;43.20
78028;DHT22;67235;45.638;11.714;2023-02-28T00:35:51;5.30;42.90
78028;DHT22;67235;45.638;11.714;2023-02-28T00:38:17;5.20;43.60
78028;DHT22;67235;45.638;11.714;2023-02-28T00:40:43;5.00;43.30
78028;DHT22;67235;45.638;11.714;2023-02-28T00:43:09;5.20;43.20
78028;DHT22;67235;45.638;11.714;2023-02-28T00:45:35;5.20;42.70
78028;DHT22;67235;45.638;11.714;2023-02-28T00:48:01;5.10;43.40
78028;DHT22;67235;45.638;11.714;2023-02-28T00:50:26;5.20;42.70
78028;DHT22;67235;45.638;11.714;2023-02-28T00:52:52;5.20;42.00
78028;DHT22;67235;45.638;11.714;2023-02-28T00:55:18;5.30;41.80
78028;DHT22;67235;45.638;11.714;2023-02-28T00:57:44;5.20;42.00
78028;DHT22;67235;45.638;11.714;2023-02-28T01:00:10;5.00;41.90
78028;DHT22;67235;45.638;11.714;2023-02-28T01:02:36;5.10;43.10
78028;DHT22;67235;45.638;11.714;2023-02-28T01:05:02;5.00;43.60
78028;DHT22;67235;45.638;11.714;2023-02-28T01:07:28;5.10;43.40
78028;DHT22;67235;45.638;11.714;2023-02-28T01:09:54;4.90;44.00
78028;DHT22;67235;45.638;11.714;2023-02-28T01:12:20;5.00;43.70
78028;DHT22;67235;45.638;11.714;2023-02-28T01:14:46;4.90;42.90
78028;DHT22;67235;45.638;11.714;2023-02-28T01:17:12;4.80;42.80
78028;DHT22;67235;45.638;11.714;2023-02-28T01:19:37;4.80;44.20
78028;DHT22;67235;45.638;11.714;2023-02-28T01:22:05;4.90;44.50
78028;DHT22;67235;45.638;11.714;2023-02-28T01:24:31;4.80;43.90
78028;DHT22;67235;45.638;11.714;2023-02-28T01:26:58;4.90;43.80
78028;DHT22;67235;45.638;11.714;2023-02-28T01:29:24;4.80;44.20
78028;DHT22;67235;45.638;11.714;2023-02-28T01:31:50;4.70;43.40
78028;DHT22;67235;45.638;11.714;2023-02-28T01:34:16;4.90;43.30
78028;DHT22;67235;45.638;11.714;2023-02-28T01:36:44;5.00;42.60
78028;DHT22;67235;45.638;11.714;2023-02-28T01:39:10;4.70;43.10
78028;DHT22;67235;45.638;11.714;2023-02-28T01:41:36;5.00;43.10
78028;DHT22;67235;45.638;11.714;2023-02-28T01:46:52;4.70;43.70
78028;DHT22;67235;45.638;11.714;2023-02-28T01:49:18;5.00;43.90
78028;DHT22;67235;45.638;11.714;2023-02-28T01:51:55;4.90;44.00
78028;DHT22;67235;45.638;11.714;2023-02-28T01:54:30;4.80;44.30
78028;DHT22;67235;45.638;11.714;2023-02-28T01:57:09;4.80;44.30
78028;DHT22;67235;45.638;11.714;2023-02-28T01:59:43;4.80;44.40
78028;DHT22;67235;45.638;11.714;2023-02-28T02:02:15;4.80;43.40
78028;DHT22;67235;45.638;11.714;2023-02-28T02:07:30;5.00;43.30
78028;DHT22;67235;45.638;11.714;2023-02-28T02:10:14;5.00;43.70
78028;DHT22;67235;45.638;11.714;2023-02-28T02:31:55;5.00;42.70
78028;DHT22;67235;45.638;11.714;2023-02-28T02:34:43;5.00;42.70
78028;DHT22;67235;45.638;11.714;2023-02-28T02:37:22;5.20;43.30
78028;DHT22;67235;45.638;11.714;2023-02-28T02:45:14;4.90;43.00
78028;DHT22;67235;45.638;11.714;2023-02-28T02:47:43;5.00;42.90
78028;DHT22;67235;45.638;11.714;2023-02-28T02:50:15;5.10;42.60
78028;DHT22;67235;45.638;11.714;2023-02-28T02:52:48;5.10;42.80
78028;DHT22;67235;45.638;11.714;2023-02-28T02:55:17;5.10;42.60
78028;DHT22;67235;45.638;11.714;2023-02-28T02:57:49;5.10;42.70
78028;DHT22;67235;45.638;11.714;2023-02-28T03:00:19;5.20;41.80
78028;DHT22;67235;45.638;11.714;2023-02-28T03:02:47;5.20;41.80
78028;DHT22;67235;45.638;11.714;2023-02-28T03:05:23;5.30;41.80
78028;DHT22;67235;45.638;11.714;2023-02-28T03:07:50;5.20;41.90
78028;DHT22;67235;45.638;11.714;2023-02-28T03:10:33;5.20;41.90
78028;DHT22;67235;45.638;11.714;2023-02-28T03:19:16;5.30;42.50
78028;DHT22;67235;45.638;11.714;2023-02-28T03:27:29;5.40;42.10
78028;DHT22;67235;45.638;11.714;2023-02-28T03:30:04;5.30;42.50
78028;DHT22;67235;45.638;11.714;2023-02-28T03:35:16;5.30;42.50
78028;DHT22;67235;45.638;11.714;2023-02-28T03:37:50;5.40;42.50
78028;DHT22;67235;45.638;11.714;2023-02-28T03:40:21;5.30;42.80
78028;DHT22;67235;45.638;11.714;2023-02-28T03:42:51;5.30;42.40
78028;DHT22;67235;45.638;11.714;2023-02-28T03:45:26;5.40;42.00
78028;DHT22;67235;45.638;11.714;2023-02-28T03:48:05;5.40;42.00
78028;DHT22;67235;45.638;11.714;2023-02-28T03:50:37;5.50;42.20
78028;DHT22;67235;45.638;11.714;2023-02-28T03:53:19;5.50;42.40
78028;DHT22;67235;45.638;11.714;2023-02-28T03:55:53;5.50;42.20
78028;DHT22;67235;45.638;11.714;2023-02-28T03:58:31;5.60;41.80
78028;DHT22;67235;45.638;11.714;2023-02-28T04:01:16;5.70;41.70
78028;DHT22;67235;45.638;11.714;2023-02-28T04:03:43;5.60;40.90
78028;DHT22;67235;45.638;11.714;2023-02-28T04:06:16;5.60;41.40
78028;DHT22;67235;45.638;11.714;2023-02-28T04:08:43;5.80;41.60
78028;DHT22;67235;45.638;11.714;2023-02-28T04:11:39;5.60;41.90
78028;DHT22;67235;45.638;11.714;2023-02-28T04:14:07;5.60;41.80
78028;DHT22;67235;45.638;11.714;2023-02-28T04:16:34;5.40;41.60
78028;DHT22;67235;45.638;11.714;2023-02-28T04:19:02;5.70;41.60
78028;DHT22;67235;45.638;11.714;2023-02-28T04:21:36;5.60;41.40
78028;DHT22;67235;45.638;11.714;2023-02-28T04:24:05;5.70;42.10
78028;DHT22;67235;45.638;11.714;2023-02-28T04:26:35;5.50;41.80
78028;DHT22;67235;45.638;11.714;2023-02-28T04:29:04;5.70;42.10
78028;DHT22;67235;45.638;11.714;2023-02-28T04:31:30;5.60;41.70
78028;DHT22;67235;45.638;11.714;2023-02-28T04:33:56;5.50;42.00
78028;DHT22;67235;45.638;11.714;2023-02-28T04:36:22;5.50;42.10
78028;DHT22;67235;45.638;11.714;2023-02-28T04:38:49;5.60;41.90
78028;DHT22;67235;45.638;11.714;2023-02-28T04:41:15;5.30;42.20
78028;DHT22;67235;45.638;11.714;2023-02-28T04:43:42;5.40;42.00
78028;DHT22;67235;45.638;11.714;2023-02-28T04:46:08;5.50;42.30
78028;DHT22;67235;45.638;11.714;2023-02-28T04:48:36;5.30;42.30
78028;DHT22;67235;45.638;11.714;2023-02-28T04:51:05;5.40;42.50
78028;DHT22;67235;45.638;11.714;2023-02-28T04:53:31;5.30;42.90
78028;DHT22;67235;45.638;11.714;2023-02-28T04:55:58;5.40;42.70
78028;DHT22;67235;45.638;11.714;2023-02-28T04:58:25;5.30;43.10
78028;DHT22;67235;45.638;11.714;2023-02-28T05:00:52;5.30;43.70
78028;DHT22;67235;45.638;11.714;2023-02-28T05:03:18;5.30;42.60
78028;DHT22;67235;45.638;11.714;2023-02-28T05:05:44;5.30;42.40
78028;DHT22;67235;45.638;11.714;2023-02-28T05:08:10;5.20;42.20
78028;DHT22;67235;45.638;11.714;2023-02-28T05:10:36;5.40;42.50
78028;DHT22;67235;45.638;11.714;2023-02-28T05:13:02;5.30;43.00
78028;DHT22;67235;45.638;11.714;2023-02-28T05:15:27;5.20;42.90
78028;DHT22;67235;45.638;11.714;2023-02-28T05:17:53;5.10;43.00
78028;DHT22;67235;45.638;11.714;2023-02-28T05:20:19;5.20;43.30
78028;DHT22;67235;45.638;11.714;2023-02-28T05:22:46;5.30;42.90
78028;DHT22;67235;45.638;11.714;2023-02-28T05:25:17;5.30;43.10
78028;DHT22;67235;45.638;11.714;2023-02-28T05:27:43;5.00;42.60
78028;DHT22;67235;45.638;11.714;2023-02-28T05:30:10;5.00;43.10
78028;DHT22;67235;45.638;11.714;2023-02-28T05:32:37;5.10;43.70
78028;DHT22;67235;45.638;11.714;2023-02-28T05:35:04;5.00;43.00
78028;DHT22;67235;45.638;11.714;2023-02-28T05:37:30;5.20;43.20
78028;DHT22;67235;45.638;11.714;2023-02-28T05:39:56;5.10;42.90
78028;DHT22;67235;45.638;11.714;2023-02-28T05:42:21;4.90;43.40
78028;DHT22;67235;45.638;11.714;2023-02-28T05:44:47;5.00;43.90
78028;DHT22;67235;45.638;11.714;2023-02-28T05:47:13;4.90;43.70
78028;DHT22;67235;45.638;11.714;2023-02-28T05:49:41;5.10;43.90
78028;DHT22;67235;45.638;11.714;2023-02-28T05:52:07;5.10;43.70
78028;DHT22;67235;45.638;11.714;2023-02-28T05:54:33;5.10;43.50
78028;DHT22;67235;45.638;11.714;2023-02-28T05:56:59;5.10;43.70
78028;DHT22;67235;45.638;11.714;2023-02-28T05:59:25;5.00;44.40
78028;DHT22;67235;45.638;11.714;2023-02-28T06:01:51;4.90;44.20
78028;DHT22;67235;45.638;11.714;2023-02-28T06:04:20;5.10;44.20
78028;DHT22;67235;45.638;11.714;2023-02-28T06:06:48;5.30;44.30
78028;DHT22;67235;45.638;11.714;2023-02-28T06:09:14;5.30;43.90
78028;DHT22;67235;45.638;11.714;2023-02-28T06:11:41;5.30;43.70
78028;DHT22;67235;45.638;11.714;2023-02-28T06:14:07;5.60;43.50
78028;DHT22;67235;45.638;11.714;2023-02-28T06:16:34;5.90;43.20
78028;DHT22;67235;45.638;11.714;2023-02-28T06:19:02;5.80;42.40
78028;DHT22;67235;45.638;11.714;2023-02-28T06:21:29;6.00;41.90
78028;DHT22;67235;45.638;11.714;2023-02-28T06:23:57;6.40;41.50
78028;DHT22;67235;45.638;11.714;2023-02-28T06:26:23;6.50;41.20
78028;DHT22;67235;45.638;11.714;2023-02-28T06:28:49;6.30;41.10
78028;DHT22;67235;45.638;11.714;2023-02-28T06:31:16;6.20;40.60
78028;DHT22;67235;45.638;11.714;2023-02-28T06:33:44;6.30;40.80
78028;DHT22;67235;45.638;11.714;2023-02-28T06:36:12;6.60;40.20
78028;DHT22;67235;45.638;11.714;2023-02-28T06:38:38;6.70;39.70
78028;DHT22;67235;45.638;11.714;2023-02-28T06:41:05;6.50;39.30
78028;DHT22;67235;45.638;11.714;2023-02-28T06:43:37;6.80;39.60
78028;DHT22;67235;45.638;11.714;2023-02-28T06:46:06;7.00;39.00
78028;DHT22;67235;45.638;11.714;2023-02-28T06:48:33;7.40;39.00
78028;DHT22;67235;45.638;11.714;2023-02-28T06:51:10;8.10;39.00
78028;DHT22;67235;45.638;11.714;2023-02-28T06:53:36;8.50;36.80
78028;DHT22;67235;45.638;11.714;2023-02-28T06:56:11;9.10;37.20
78028;DHT22;67235;45.638;11.714;2023-02-28T06:58:38;9.90;35.20
78028;DHT22;67235;45.638;11.714;2023-02-28T07:01:05;10.90;32.50
78028;DHT22;67235;45.638;11.714;2023-02-28T07:03:32;11.50;31.30
78028;DHT22;67235;45.638;11.714;2023-02-28T07:05:58;11.10;31.40
78028;DHT22;67235;45.638;11.714;2023-02-28T07:08:24;11.20;31.30
78028;DHT22;67235;45.638;11.714;2023-02-28T07:10:57;11.10;32.00
78028;DHT22;67235;45.638;11.714;2023-02-28T07:13:23;11.90;31.20
78028;DHT22;67235;45.638;11.714;2023-02-28T07:16:01;12.50;31.50
78028;DHT22;67235;45.638;11.714;2023-02-28T07:18:27;13.30;28.50
78028;DHT22;67235;45.638;11.714;2023-02-28T07:20:53;13.50;27.40
78028;DHT22;67235;45.638;11.714;2023-02-28T07:23:19;14.50;25.90
78028;DHT22;67235;45.638;11.714;2023-02-28T07:25:45;14.60;24.50
78028;DHT22;67235;45.638;11.714;2023-02-28T07:28:12;14.60;24.30
78028;DHT22;67235;45.638;11.714;2023-02-28T07:30:38;14.70;23.80
78028;DHT22;67235;45.638;11.714;2023-02-28T07:33:04;14.90;23.60
78028;DHT22;67235;45.638;11.714;2023-02-28T07:35:31;14.90;23.40
78028;DHT22;67235;45.638;11.714;2023-02-28T07:38:00;15.30;21.90
78028;DHT22;67235;45.638;11.714;2023-02-28T07:40:27;15.90;19.80
78028;DHT22;67235;45.638;11.714;2023-02-28T07:42:53;18.00;18.20
78028;DHT22;67235;45.638;11.714;2023-02-28T07:45:21;18.80;15.80
78028;DHT22;67235;45.638;11.714;2023-02-28T07:47:47;18.90;15.40
78028;DHT22;67235;45.638;11.714;2023-02-28T07:50:14;19.50;14.50
78028;DHT22;67235;45.638;11.714;2023-02-28T07:52:41;19.20;13.90
78028;DHT22;67235;45.638;11.714;2023-02-28T07:55:08;18.70;14.70
78028;DHT22;67235;45.638;11.714;2023-02-28T07:57:35;17.40;18.50
78028;DHT22;67235;45.638;11.714;2023-02-28T08:00:04;18.80;14.80
78028;DHT22;67235;45.638;11.714;2023-02-28T08:02:30;18.90;13.60
78028;DHT22;67235;45.638;11.714;2023-02-28T08:04:59;17.10;17.30
78028;DHT22;67235;45.638;11.714;2023-02-28T08:07:25;18.00;18.00
78028;DHT22;67235;45.638;11.714;2023-02-28T08:09:53;17.70;17.60
78028;DHT22;67235;45.638;11.714;2023-02-28T08:12:19;19.30;14.20
78028;DHT22;67235;45.638;11.714;2023-02-28T08:14:46;18.60;13.70
78028;DHT22;67235;45.638;11.714;2023-02-28T08:17:12;19.70;13.60
78028;DHT22;67235;45.638;11.714;2023-02-28T08:19:38;19.20;13.20
78028;DHT22;67235;45.638;11.714;2023-02-28T08:22:04;18.80;14.10
78028;DHT22;67235;45.638;11.714;2023-02-28T08:24:31;19.10;13.30
78028;DHT22;67235;45.638;11.714;2023-02-28T08:26:56;18.80;14.50
78028;DHT22;67235;45.638;11.714;2023-02-28T08:29:23;18.40;14.60
78028;DHT22;67235;45.638;11.714;2023-02-28T08:31:49;19.10;13.50
78028;DHT22;67235;45.638;11.714;2023-02-28T08:34:16;18.80;13.50
78028;DHT22;67235;45.638;11.714;2023-02-28T08:37:05;19.70;13.10
78028;DHT22;67235;45.638;11.714;2023-02-28T08:39:34;18.30;14.80
78028;DHT22;67235;45.638;11.714;2023-02-28T08:42:01;18.00;16.10
78028;DHT22;67235;45.638;11.714;2023-02-28T08:44:27;18.40;14.80
78028;DHT22;67235;45.638;11.714;2023-02-28T08:46:52;18.00;16.30
78028;DHT22;67235;45.638;11.714;2023-02-28T08:49:18;19.60;13.40
78028;DHT22;67235;45.638;11.714;2023-02-28T08:51:44;18.50;14.40
78028;DHT22;67235;45.638;11.714;2023-02-28T08:54:10;18.90;14.50
78028;DHT22;67235;45.638;11.714;2023-02-28T08:56:38;18.40;14.00
78028;DHT22;67235;45.638;11.714;2023-02-28T08:59:04;18.90;13.80
78028;DHT22;67235;45.638;11.714;2023-02-28T09:01:31;19.30;13.00
78028;DHT22;67235;45.638;11.714;2023-02-28T09:03:57;18.70;14.80
78028;DHT22;67235;45.638;11.714;2023-02-28T09:06:29;19.00;13.60
78028;DHT22;67235;45.638;11.714;2023-02-28T09:08:58;19.50;15.40
78028;DHT22;67235;45.638;11.714;2023-02-28T09:11:27;21.30;11.00
78028;DHT22;67235;45.638;11.714;2023-02-28T09:13:57;21.20;10.80
78028;DHT22;67235;45.638;11.714;2023-02-28T09:16:27;21.20;10.20
78028;DHT22;67235;45.638;11.714;2023-02-28T09:18:53;21.20;10.70
78028;DHT22;67235;45.638;11.714;2023-02-28T09:21:19;19.90;12.30
78028;DHT22;67235;45.638;11.714;2023-02-28T09:23:48;18.90;13.90
78028;DHT22;67235;45.638;11.714;2023-02-28T09:26:20;19.10;13.80
78028;DHT22;67235;45.638;11.714;2023-02-28T09:28:50;18.30;14.80
78028;DHT22;67235;45.638;11.714;2023-02-28T09:31:20;18.00;16.80
78028;DHT22;67235;45.638;11.714;2023-02-28T09:33:52;18.40;13.90
78028;DHT22;67235;45.638;11.714;2023-02-28T09:36:21;17.60;17.20
78028;DHT22;67235;45.638;11.714;2023-02-28T09:38:47;17.70;16.90
78028;DHT22;67235;45.638;11.714;2023-02-28T09:41:17;18.10;17.10
78028;DHT22;67235;45.638;11.714;2023-02-28T09:43:47;18.60;15.80
78028;DHT22;67235;45.638;11.714;2023-02-28T09:46:38;18.20;14.20
78028;DHT22;67235;45.638;11.714;2023-02-28T09:49:25;17.20;15.60
78028;DHT22;67235;45.638;11.714;2023-02-28T09:52:01;16.70;18.00
78028;DHT22;67235;45.638;11.714;2023-02-28T09:54:32;17.60;16.20
78028;DHT22;67235;45.638;11.714;2023-02-28T09:57:05;18.00;14.90
78028;DHT22;67235;45.638;11.714;2023-02-28T10:05:12;18.00;17.40
78028;DHT22;67235;45.638;11.714;2023-02-28T10:08:00;19.30;13.10
78028;DHT22;67235;45.638;11.714;2023-02-28T10:10:43;19.10;13.80
78028;DHT22;67235;45.638;11.714;2023-02-28T10:13:20;18.60;12.70
78028;DHT22;67235;45.638;11.714;2023-02-28T10:15:53;18.30;15.50
78028;DHT22;67235;45.638;11.714;2023-02-28T10:18:27;17.70;15.40
78028;DHT22;67235;45.638;11.714;2023-02-28T10:20:56;17.60;15.60
78028;DHT22;67235;45.638;11.714;2023-02-28T10:23:33;17.60;14.90
78028;DHT22;67235;45.638;11.714;2023-02-28T10:26:11;17.30;16.20
78028;DHT22;67235;45.638;11.714;2023-02-28T10:28:38;17.10;16.00
78028;DHT22;67235;45.638;11.714;2023-02-28T10:31:04;17.00;19.30
78028;DHT22;67235;45.638;11.714;2023-02-28T10:33:37;17.70;18.00
78028;DHT22;67235;45.638;11.714;2023-02-28T10:36:08;17.50;15.50
78028;DHT22;67235;45.638;11.714;2023-02-28T10:38:38;17.40;16.20
78028;DHT22;67235;45.638;11.714;2023-02-28T10:43:38;17.10;16.70
78028;DHT22;67235;45.638;11.714;2023-02-28T10:46:12;16.90;18.40
78028;DHT22;67235;45.638;11.714;2023-02-28T10:49:05;17.30;17.60
78028;DHT22;67235;45.638;11.714;2023-02-28T10:51:38;17.20;18.10
78028;DHT22;67235;45.638;11.714;2023-02-28T10:54:05;17.10;17.80
78028;DHT22;67235;45.638;11.714;2023-02-28T10:56:31;17.60;16.60
78028;DHT22;67235;45.638;11.714;2023-02-28T10:59:28;17.90;17.90
78028;DHT22;67235;45.638;11.714;2023-02-28T11:01:55;18.20;14.70
78028;DHT22;67235;45.638;11.714;2023-02-28T11:07:05;16.80;17.70
78028;DHT22;67235;45.638;11.714;2023-02-28T11:09:41;16.80;18.90
78028;DHT22;67235;45.638;11.714;2023-02-28T11:14:52;17.20;18.20
78028;DHT22;67235;45.638;11.714;2023-02-28T11:17:21;17.20;17.40
78028;DHT22;67235;45.638;11.714;2023-02-28T11:19:51;17.40;18.30
78028;DHT22;67235;45.638;11.714;2023-02-28T11:22:23;18.80;14.10
78028;DHT22;67235;45.638;11.714;2023-02-28T11:24:55;18.10;17.80
78028;DHT22;67235;45.638;11.714;2023-02-28T11:30:00;17.30;16.70
78028;DHT22;67235;45.638;11.714;2023-02-28T11:32:28;17.30;18.20
78028;DHT22;67235;45.638;11.714;2023-02-28T11:37:38;18.30;14.80
78028;DHT22;67235;45.638;11.714;2023-02-28T11:51:57;17.00;18.70
78028;DHT22;67235;45.638;11.714;2023-02-28T11:54:48;17.30;17.70
78028;DHT22;67235;45.638;11.714;2023-02-28T11:57:49;16.50;18.30
78028;DHT22;67235;45.638;11.714;2023-02-28T12:00:37;16.80;20.10
78028;DHT22;67235;45.638;11.714;2023-02-28T12:13:51;15.60;18.90
78028;DHT22;67235;45.638;11.714;2023-02-28T12:19:57;15.20;22.40
78028;DHT22;67235;45.638;11.714;2023-02-28T12:22:19;15.60;21.70
78028;DHT22;67235;45.638;11.714;2023-02-28T12:25:02;15.60;19.80
78028;DHT22;67235;45.638;11.714;2023-02-28T12:27:43;15.70;20.00
78028;DHT22;67235;45.638;11.714;2023-02-28T12:30:34;16.10;19.70
78028;DHT22;67235;45.638;11.714;2023-02-28T12:33:07;15.90;18.80
78028;DHT22;67235;45.638;11.714;2023-02-28T12:35:39;15.80;19.40
78028;DHT22;67235;45.638;11.714;2023-02-28T12:38:19;15.70;20.20
78028;DHT22;67235;45.638;11.714;2023-02-28T12:43:17;15.70;19.00
78028;DHT22;67235;45.638;11.714;2023-02-28T12:45:52;15.80;22.40
78028;DHT22;67235;45.638;11.714;2023-02-28T12:48:37;16.00;20.90
78028;DHT22;67235;45.638;11.714;2023-02-28T12:51:05;15.70;20.70
78028;DHT22;67235;45.638;11.714;2023-02-28T12:56:22;15.20;22.40
78028;DHT22;67235;45.638;11.714;2023-02-28T12:59:04;15.30;23.50
78028;DHT22;67235;45.638;11.714;2023-02-28T13:07:33;15.00;22.20
78028;DHT22;67235;45.638;11.714;2023-02-28T13:10:04;15.00;22.00
78028;DHT22;67235;45.638;11.714;2023-02-28T13:12:33;15.20;22.80
78028;DHT22;67235;45.638;11.714;2023-02-28T13:15:18;15.20;22.30
78028;DHT22;67235;45.638;11.714;2023-02-28T13:17:52;14.60;23.40
78028;DHT22;67235;45.638;11.714;2023-02-28T13:20:24;14.80;23.00
78028;DHT22;67235;45.638;11.714;2023-02-28T13:22:54;15.00;25.80
78028;DHT22;67235;45.638;11.714;2023-02-28T13:28:00;15.00;23.40
78028;DHT22;67235;45.638;11.714;2023-02-28T13:38:39;15.20;23.90
78028;DHT22;67235;45.638;11.714;2023-02-28T13:46:33;14.50;23.50
78028;DHT22;67235;45.638;11.714;2023-02-28T14:05:43;14.10;26.10
78028;DHT22;67235;45.638;11.714;2023-02-28T14:08:17;14.20;25.90
78028;DHT22;67235;45.638;11.714;2023-02-28T14:10:49;14.00;25.40
78028;DHT22;67235;45.638;11.714;2023-02-28T14:15:59;14.20;24.20
78028;DHT22;67235;45.638;11.714;2023-02-28T14:18:29;14.10;25.40
78028;DHT22;67235;45.638;11.714;2023-02-28T14:21:31;14.10;25.50
78028;DHT22;67235;45.638;11.714;2023-02-28T14:30:37;13.90;24.90
78028;DHT22;67235;45.638;11.714;2023-02-28T14:36:12;14.10;24.50
78028;DHT22;67235;45.638;11.714;2023-02-28T14:38:48;14.10;25.90
78028;DHT22;67235;45.638;11.714;2023-02-28T14:41:28;14.20;25.70
78028;DHT22;67235;45.638;11.714;2023-02-28T14:43:59;14.40;25.60
78028;DHT22;67235;45.638;11.714;2023-02-28T14:46:32;14.10;25.60
78028;DHT22;67235;45.638;11.714;2023-02-28T14:48:59;14.00;25.00
78028;DHT22;67235;45.638;11.714;2023-02-28T14:51:25;14.00;26.90
78028;DHT22;67235;45.638;11.714;2023-02-28T14:53:57;13.90;26.50
78028;DHT22;67235;45.638;11.714;2023-02-28T14:56:38;13.60;25.40
78028;DHT22;67235;45.638;11.714;2023-02-28T14:59:17;13.50;25.50
78028;DHT22;67235;45.638;11.714;2023-02-28T15:01:46;13.70;26.70
78028;DHT22;67235;45.638;11.714;2023-02-28T15:04:22;13.60;26.20
78028;DHT22;67235;45.638;11.714;2023-02-28T15:07:10;13.60;26.00
78028;DHT22;67235;45.638;11.714;2023-02-28T15:09:36;13.60;27.00
78028;DHT22;67235;45.638;11.714;2023-02-28T15:12:02;13.60;27.20
78028;DHT22;67235;45.638;11.714;2023-02-28T15:14:28;13.60;28.00
78028;DHT22;67235;45.638;11.714;2023-02-28T15:17:02;13.50;26.50
78028;DHT22;67235;45.638;11.714;2023-02-28T15:19:36;13.60;26.50
78028;DHT22;67235;45.638;11.714;2023-02-28T15:22:07;13.40;26.60
78028;DHT22;67235;45.638;11.714;2023-02-28T15:25:04;13.40;26.40
78028;DHT22;67235;45.638;11.714;2023-02-28T15:27:32;13.40;27.00
78028;DHT22;67235;45.638;11.714;2023-02-28T15:30:13;13.20;27.80
78028;DHT22;67235;45.638;11.714;2023-02-28T15:32:40;13.00;27.40
78028;DHT22;67235;45.638;11.714;2023-02-28T15:35:31;13.00;28.20
78028;DHT22;67235;45.638;11.714;2023-02-28T15:38:03;13.10;28.10
78028;DHT22;67235;45.638;11.714;2023-02-28T15:40:42;13.10;26.90
78028;DHT22;67235;45.638;11.714;2023-02-28T15:43:17;12.90;27.90
78028;DHT22;67235;45.638;11.714;2023-02-28T15:45:50;12.70;29.40
78028;DHT22;67235;45.638;11.714;2023-02-28T15:48:37;12.50;29.80
78028;DHT22;67235;45.638;11.714;2023-02-28T15:54:07;12.60;29.90
78028;DHT22;67235;45.638;11.714;2023-02-28T15:56:39;12.60;29.50
78028;DHT22;67235;45.638;11.714;2023-02-28T15:59:17;12.50;30.00
78028;DHT22;67235;45.638;11.714;2023-02-28T16:01:43;12.40;30.20
78028;DHT22;67235;45.638;11.714;2023-02-28T16:04:18;12.40;30.50
78028;DHT22;67235;45.638;11.714;2023-02-28T16:07:05;12.30;29.20
78028;DHT22;67235;45.638;11.714;2023-02-28T16:09:57;12.20;30.20
78028;DHT22;67235;45.638;11.714;2023-02-28T16:12:34;12.20;30.80
78028;DHT22;67235;45.638;11.714;2023-02-28T16:18:24;11.90;30.30
78028;DHT22;67235;45.638;11.714;2023-02-28T16:20:53;11.80;31.40
78028;DHT22;67235;45.638;11.714;2023-02-28T16:23:24;11.80;31.80
78028;DHT22;67235;45.638;11.714;2023-02-28T16:26:05;11.60;31.10
78028;DHT22;67235;45.638;11.714;2023-02-28T16:28:38;11.50;32.30
78028;DHT22;67235;45.638;11.714;2023-02-28T16:31:06;11.40;31.60
78028;DHT22;67235;45.638;11.714;2023-02-28T16:33:35;11.40;32.00
78028;DHT22;67235;45.638;11.714;2023-02-28T16:36:01;11.20;32.40
78028;DHT22;67235;45.638;11.714;2023-02-28T16:38:45;11.10;31.90
78028;DHT22;67235;45.638;11.714;2023-02-28T16:41:19;11.10;32.30
78028;DHT22;67235;45.638;11.714;2023-02-28T16:43:53;11.00;32.20
78028;DHT22;67235;45.638;11.714;2023-02-28T16:46:28;10.90;32.80
78028;DHT22;67235;45.638;11.714;2023-02-28T16:49:01;10.80;35.10
78028;DHT22;67235;45.638;11.714;2023-02-28T16:51:27;10.70;36.60
78028;DHT22;67235;45.638;11.714;2023-02-28T16:53:53;10.50;39.10
78028;DHT22;67235;45.638;11.714;2023-02-28T16:56:24;10.50;39.70
78028;DHT22;67235;45.638;11.714;2023-02-28T16:59:00;10.40;40.30
78028;DHT22;67235;45.638;11.714;2023-02-28T17:01:29;10.30;41.10
78028;DHT22;67235;45.638;11.714;2023-02-28T17:03:57;10.00;41.70
78028;DHT22;67235;45.638;11.714;2023-02-28T17:06:38;10.00;42.60
78028;DHT22;67235;45.638;11.714;2023-02-28T17:09:05;9.80;43.00
78028;DHT22;67235;45.638;11.714;2023-02-28T17:11:34;9.60;43.80
78028;DHT22;67235;45.638;11.714;2023-02-28T17:14:19;9.50;44.30
78028;DHT22;67235;45.638;11.714;2023-02-28T17:16:46;9.40;44.80
78028;DHT22;67235;45.638;11.714;2023-02-28T17:19:14;9.30;45.10
78028;DHT22;67235;45.638;11.714;2023-02-28T17:21:40;9.20;45.10
78028;DHT22;67235;45.638;11.714;2023-02-28T17:24:09;9.20;45.30
78028;DHT22;67235;45.638;11.714;2023-02-28T17:26:38;9.20;61.30
78028;DHT22;67235;45.638;11.714;2023-02-28T17:29:10;9.20;45.40
78028;DHT22;67235;45.638;11.714;2023-02-28T17:31:41;9.20;45.30
78028;DHT22;67235;45.638;11.714;2023-02-28T17:34:09;9.10;45.40
78028;DHT22;67235;45.638;11.714;2023-02-28T17:36:35;9.10;61.50
78028;DHT22;67235;45.638;11.714;2023-02-28T17:39:04;9.10;61.70
78028;DHT22;67235;45.638;11.714;2023-02-28T17:41:34;9.10;62.00
78028;DHT22;67235;45.638;11.714;2023-02-28T17:44:00;9.10;61.90
78028;DHT22;67235;45.638;11.714;2023-02-28T17:46:26;8.90;61.80
78028;DHT22;67235;45.638;11.714;2023-02-28T17:49:08;8.80;61.60
78028;DHT22;67235;45.638;11.714;2023-02-28T17:51:34;8.60;62.00
78028;DHT22;67235;45.638;11.714;2023-02-28T17:54:00;8.40;62.30
78028;DHT22;67235;45.638;11.714;2023-02-28T17:56:26;8.40;62.40
78028;DHT22;67235;45.638;11.714;2023-02-28T17:58:54;8.10;62.40
78028;DHT22;67235;45.638;11.714;2023-02-28T18:01:21;8.10;62.30
78028;DHT22;67235;45.638;11.714;2023-02-28T18:03:48;8.00;62.60
78028;DHT22;67235;45.638;11.714;2023-02-28T18:06:25;7.80;62.60
78028;DHT22;67235;45.638;11.714;2023-02-28T18:08:53;7.70;62.70
78028;DHT22;67235;45.638;11.714;2023-02-28T18:11:21;7.90;62.70
78028;DHT22;67235;45.638;11.714;2023-02-28T18:13:52;7.90;62.40
78028;DHT22;67235;45.638;11.714;2023-02-28T18:16:19;8.00;62.10